Time;durP1;ratioP1;P1;durP2;ratioP2;P2;SDS_P1;SDS_P2;PMS_P1;PMS_P2;Temp;Humidity;BMP_temperature;BMP_pressure;BME280_temperature;BME280_humidity;BME280_pressure;Samples;Min_cycle;Max_cycle;Signal;HPM_P1;HPM_P2
2022/02/05 00:00:23;;;;;;;2.30;0.85;;;;;;;5.38;61.13;100120.69;1089587;47;20042;-75
2022/02/05 00:01:33;;;;;;;3.10;1.00;;;;;;;5.13;61.89;100117.09;1088064;47;20034;-77
2022/02/05 00:02:43;;;;;;;3.53;1.13;;;;;;;5.04;62.29;100122.19;1088599;39;20270;-78
2022/02/05 00:03:54;;;;;;;2.60;0.93;;;;;;;4.89;62.46;100129.41;1087426;46;20061;-76
2022/02/05 00:04:57;;;;;;;3.92;1.15;;;;;;;4.96;62.48;100117.44;1087532;54;20306;-75
2022/02/05 00:06:05;;;;;;;3.55;1.05;;;;;;;5.08;62.13;100118.38;1087669;54;20094;-77
2022/02/05 00:07:08;;;;;;;2.03;0.82;;;;;;;5.10;62.32;100119.94;1087531;54;20033;-76
2022/02/05 00:08:38;;;;;;;3.40;0.95;;;;;;;4.91;62.19;100127.50;1087907;47;20042;-76
2022/02/05 00:10:00;;;;;;;3.67;0.80;;;;;;;4.80;62.53;100131.75;1087674;54;20030;-76
2022/02/05 00:12:35;;;;;;;2.58;0.80;;;;;;;4.77;62.76;100134.59;1087632;54;20030;-76
2022/02/05 00:14:10;;;;;;;2.95;0.85;;;;;;;4.77;62.62;100134.59;1089271;47;20030;-76
2022/02/05 00:15:33;;;;;;;3.63;0.85;;;;;;;4.87;62.42;100133.97;1087551;54;20054;-76
2022/02/05 00:33:11;;;;;;;2.42;0.70;;;;;;;5.04;62.06;100135.47;1086778;54;20034;-77
2022/02/05 00:38:59;;;;;;;4.13;1.10;;;;;;;4.37;63.80;100179.66;1087500;54;20951;-76
2022/02/05 00:40:06;;;;;;;3.63;1.10;;;;;;;4.36;64.00;100183.25;1087573;54;20035;-76
2022/02/05 00:41:17;;;;;;;4.22;1.20;;;;;;;4.41;64.27;100191.75;1087313;54;20034;-76
2022/02/05 00:42:29;;;;;;;2.60;0.90;;;;;;;4.37;64.24;100192.88;1087435;54;20035;-76
2022/02/05 00:43:33;;;;;;;2.78;0.95;;;;;;;4.40;64.44;100190.03;1087614;54;20034;-76
2022/02/05 00:44:35;;;;;;;3.38;0.93;;;;;;;4.47;64.26;100188.69;1087596;54;20034;-76
2022/02/05 00:45:42;;;;;;;2.33;0.75;;;;;;;4.49;64.25;100191.22;1091830;31;20780;-77
2022/02/05 00:46:45;;;;;;;2.90;0.70;;;;;;;4.48;64.26;100195.66;1087497;54;20057;-76
2022/02/05 00:47:49;;;;;;;2.83;1.00;;;;;;;4.28;64.68;100190.84;1087837;47;20042;-76
2022/02/05 00:48:51;;;;;;;3.65;1.00;;;;;;;4.27;64.71;100189.13;1087520;54;20019;-76
2022/02/05 00:49:59;;;;;;;2.42;0.88;;;;;;;4.30;64.32;100188.94;1087556;54;20034;-76
2022/02/05 00:51:13;;;;;;;3.95;1.20;;;;;;;4.24;64.51;100199.94;1087588;54;20090;-76
2022/02/05 00:52:18;;;;;;;3.08;1.10;;;;;;;4.26;64.92;100198.03;1088563;47;20030;-78
2022/02/05 00:53:34;;;;;;;2.97;1.00;;;;;;;4.22;64.70;100202.66;1087631;54;20025;-77
2022/02/05 00:54:36;;;;;;;2.42;0.90;;;;;;;4.28;64.72;100204.06;1088944;47;20027;-76
2022/02/05 00:55:44;;;;;;;3.55;1.05;;;;;;;4.26;64.77;100203.31;1090583;39;20452;-77
2022/02/05 00:57:02;;;;;;;3.53;0.88;;;;;;;4.24;64.71;100200.78;1087552;54;20039;-76
2022/02/05 00:58:06;;;;;;;2.38;0.90;;;;;;;4.29;64.69;100206.63;1087200;54;20062;-76
2022/02/05 00:59:07;;;;;;;3.70;1.50;;;;;;;4.18;65.03;100209.97;1087226;54;20054;-77
2022/02/05 01:00:13;;;;;;;4.57;1.10;;;;;;;4.16;64.92;100213.66;1087446;54;20049;-77
2022/02/05 01:01:17;;;;;;;2.60;0.88;;;;;;;4.17;65.11;100218.00;1087512;54;20030;-77
2022/02/05 01:02:18;;;;;;;4.25;0.90;;;;;;;4.15;65.13;100218.13;1087591;54;20027;-77
2022/02/05 01:03:23;;;;;;;3.75;0.98;;;;;;;4.13;65.05;100220.00;1087564;54;20036;-76
2022/02/05 01:04:24;;;;;;;3.28;0.95;;;;;;;3.99;65.21;100215.59;1088028;54;20039;-77
2022/02/05 01:05:29;;;;;;;3.17;1.00;;;;;;;4.09;65.19;100215.84;1090839;39;20218;-77
2022/02/05 01:06:30;;;;;;;2.95;0.80;;;;;;;4.05;65.31;100217.84;1087779;54;20038;-76
2022/02/05 01:07:35;;;;;;;2.85;0.90;;;;;;;4.04;65.46;100213.50;1088210;54;20038;-76
2022/02/05 01:08:39;;;;;;;3.75;0.82;;;;;;;4.06;65.65;100216.06;1088233;54;20038;-76
2022/02/05 01:09:43;;;;;;;2.40;0.85;;;;;;;4.12;65.52;100213.03;1088237;54;20038;-77
2022/02/05 01:10:48;;;;;;;6.43;1.15;;;;;;;4.11;65.74;100211.31;1089814;46;20042;-77
2022/02/05 01:11:55;;;;;;;3.78;0.90;;;;;;;4.09;65.71;100207.09;1089631;46;20038;-76
2022/02/05 01:13:03;;;;;;;3.90;0.90;;;;;;;4.06;65.82;100208.13;1088698;39;20688;-76
2022/02/05 01:14:07;;;;;;;4.28;0.82;;;;;;;4.04;66.25;100217.97;1088074;54;20034;-77
2022/02/05 01:15:13;;;;;;;2.75;1.05;;;;;;;4.03;66.33;100213.63;1087973;54;20030;-77
2022/02/05 01:16:22;;;;;;;2.40;0.80;;;;;;;4.01;66.53;100215.50;1088304;54;20065;-76
2022/02/05 01:17:31;;;;;;;3.00;0.90;;;;;;;4.05;66.65;100214.38;1088417;54;20035;-76
2022/02/05 01:18:35;;;;;;;5.82;1.02;;;;;;;4.07;66.64;100215.09;1088281;54;20035;-77
2022/02/05 01:21:09;;;;;;;2.65;0.90;;;;;;;3.94;66.74;100224.78;1088368;54;20035;-77
2022/02/05 01:22:12;;;;;;;3.38;1.10;;;;;;;4.04;66.62;100226.72;1088197;54;20035;-77
2022/02/05 01:23:22;;;;;;;3.05;0.90;;;;;;;4.11;66.76;100237.78;1088158;54;20078;-77
2022/02/05 01:24:25;;;;;;;3.38;0.90;;;;;;;3.94;66.84;100222.97;1089673;46;20022;-76
2022/02/05 01:25:34;;;;;;;3.53;1.00;;;;;;;3.90;67.05;100230.25;1088289;54;20041;-75
2022/02/05 01:26:41;;;;;;;3.50;1.08;;;;;;;3.83;67.46;100225.44;1092917;39;20681;-77
2022/02/05 01:27:52;;;;;;;2.65;0.93;;;;;;;3.85;67.27;100235.00;1088274;54;20018;-76
2022/02/05 01:29:00;;;;;;;3.38;0.82;;;;;;;3.89;66.95;100230.38;1088464;54;20038;-77
2022/02/05 01:30:15;;;;;;;4.05;0.90;;;;;;;3.85;67.23;100231.50;1088203;54;20019;-77
2022/02/05 01:31:24;;;;;;;5.32;1.55;;;;;;;3.83;67.34;100236.91;1088232;54;20021;-75
2022/02/05 01:32:28;;;;;;;4.57;1.20;;;;;;;3.77;67.37;100239.94;1091654;46;20098;-77
2022/02/05 01:33:47;;;;;;;3.90;1.33;;;;;;;3.82;67.42;100240.47;1090019;46;20041;-76
2022/02/05 01:34:59;;;;;;;3.35;1.15;;;;;;;3.74;67.39;100250.69;1088352;54;20046;-76
2022/02/05 01:36:21;;;;;;;4.47;1.08;;;;;;;3.84;67.15;100246.53;1088368;54;20022;-76
2022/02/05 01:49:46;;;;;;;3.72;0.90;;;;;;;3.56;66.68;100269.41;1088546;54;20074;-77
2022/02/05 01:50:58;;;;;;;3.67;1.15;;;;;;;3.53;66.57;100269.59;1088374;54;20050;-76
2022/02/05 01:52:13;;;;;;;6.57;1.45;;;;;;;3.52;66.60;100267.88;1088353;54;20053;-76
2022/02/05 01:53:46;;;;;;;4.13;1.15;;;;;;;3.57;66.47;100271.09;1088408;54;20050;-77
2022/02/05 01:56:28;;;;;;;5.25;1.73;;;;;;;3.61;65.87;100276.19;1088423;54;20033;-76
2022/02/05 01:57:45;;;;;;;6.90;1.50;;;;;;;3.52;66.00;100272.31;1088290;54;20037;-76
2022/02/05 01:58:59;;;;;;;4.60;1.30;;;;;;;3.48;66.09;100266.38;1088471;54;20038;-76
2022/02/05 02:05:13;;;;;;;4.10;1.20;;;;;;;3.61;65.54;100281.47;1088220;54;20041;-76
2022/02/05 02:06:32;;;;;;;3.97;1.20;;;;;;;3.62;65.74;100283.19;1088330;54;20030;-77
2022/02/05 02:10:34;;;;;;;4.60;1.33;;;;;;;3.65;65.93;100272.41;1088344;54;20050;-76
2022/02/05 02:11:41;;;;;;;3.30;1.00;;;;;;;3.74;65.81;100279.78;1088390;46;20022;-76
2022/02/05 02:12:58;;;;;;;4.68;1.20;;;;;;;3.58;65.76;100278.09;1088265;54;20034;-77
2022/02/05 02:15:26;;;;;;;4.57;1.20;;;;;;;3.51;66.40;100271.47;1088266;54;20039;-76
2022/02/05 02:16:42;;;;;;;4.03;1.00;;;;;;;3.46;66.34;100275.31;1090372;39;20237;-76
2022/02/05 02:19:20;;;;;;;5.13;1.40;;;;;;;3.40;66.41;100289.78;1087655;54;20059;-76
2022/02/05 02:20:33;;;;;;;4.82;1.27;;;;;;;3.34;66.31;100290.13;1088205;54;20037;-76
2022/02/05 02:21:47;;;;;;;5.35;1.48;;;;;;;3.34;66.48;100284.84;1089455;46;20038;-76
2022/02/05 02:23:01;;;;;;;8.82;2.28;;;;;;;3.36;66.51;100281.16;1090650;46;20034;-76
2022/02/05 02:24:11;;;;;;;4.82;1.05;;;;;;;3.24;66.92;100293.34;1088499;46;20030;-77
2022/02/05 02:25:26;;;;;;;4.95;1.20;;;;;;;3.30;66.67;100289.47;1090428;46;20061;-76
2022/02/05 02:26:41;;;;;;;5.50;1.10;;;;;;;3.28;67.02;100294.88;1088208;54;20050;-76
2022/02/05 02:27:54;;;;;;;4.47;1.17;;;;;;;3.25;66.97;100295.03;1088246;54;20045;-76
2022/02/05 02:29:01;;;;;;;4.60;1.20;;;;;;;3.21;67.11;100296.16;1088242;54;20034;-77
2022/02/05 02:30:14;;;;;;;5.68;1.10;;;;;;;3.27;67.09;100298.44;1088264;54;20030;-76
2022/02/05 02:31:20;;;;;;;4.32;1.27;;;;;;;3.29;66.94;100301.00;1088283;54;20037;-76
2022/02/05 02:32:25;;;;;;;5.55;1.48;;;;;;;3.33;66.96;100291.94;1088245;54;20119;-76
2022/02/05 02:33:31;;;;;;;4.85;1.08;;;;;;;3.32;67.09;100297.31;1088296;54;20042;-75
2022/02/05 02:34:41;;;;;;;5.82;1.50;;;;;;;3.39;66.83;100299.50;1088264;54;20061;-76
2022/02/05 02:35:46;;;;;;;3.72;1.20;;;;;;;3.30;66.97;100300.03;1087923;54;20038;-76
2022/02/05 02:36:57;;;;;;;5.65;1.48;;;;;;;3.22;67.18;100295.22;1088322;54;20019;-77
2022/02/05 02:38:03;;;;;;;;;;;;;;;3.17;67.49;100289.38;1088564;54;20050;-77
2022/02/05 02:39:12;;;;;;;7.25;1.45;;;;;;;3.22;67.20;100297.84;1093046;46;19927;-76
2022/02/05 02:40:23;;;;;;;6.47;1.65;;;;;;;3.18;67.44;100304.28;1090091;46;20034;-76
2022/02/05 02:41:32;;;;;;;5.95;1.25;;;;;;;3.19;67.41;100303.34;1088348;54;20128;-78
2022/02/05 02:42:40;;;;;;;4.15;1.08;;;;;;;3.29;67.36;100303.63;1089906;46;20030;-77
2022/02/05 02:43:44;;;;;;;3.30;1.10;;;;;;;3.27;67.30;100306.38;1090413;46;20058;-77
2022/02/05 02:44:46;;;;;;;3.45;1.13;;;;;;;3.21;67.22;100298.78;1088233;54;20038;-77
2022/02/05 02:45:50;;;;;;;4.97;1.38;;;;;;;3.29;67.03;100301.00;1088167;54;20036;-76
2022/02/05 02:47:57;;;;;;;3.80;1.02;;;;;;;3.23;67.45;100310.13;1088314;54;20010;-81
2022/02/05 02:49:01;;;;;;;4.35;0.90;;;;;;;3.37;67.06;100306.66;1088120;54;20033;-81
2022/02/05 02:50:10;;;;;;;5.03;1.35;;;;;;;3.34;67.22;100300.72;1090030;46;20694;-81
2022/02/05 02:56:32;;;;;;;6.32;1.65;;;;;;;3.32;67.17;100306.09;1088432;54;20019;-80
2022/02/05 02:57:36;;;;;;;;;;;;;;;3.23;67.58;100299.56;1088546;54;20035;-80
2022/02/05 02:58:41;;;;;;;2.92;1.02;;;;;;;3.25;67.38;100302.97;1088293;54;19922;-80
2022/02/05 02:59:55;;;;;;;6.10;1.50;;;;;;;3.20;67.37;100309.47;1088329;54;20027;-80
2022/02/05 03:00:58;;;;;;;5.80;1.15;;;;;;;3.18;67.54;100309.56;1090217;39;20637;-80
2022/02/05 03:02:10;;;;;;;6.20;1.40;;;;;;;3.21;67.50;100304.06;1088267;54;20594;-81
2022/02/05 03:03:11;;;;;;;4.47;1.42;;;;;;;3.14;67.61;100315.13;1088397;54;20015;-80
2022/02/05 03:04:15;;;;;;;6.63;1.35;;;;;;;3.26;67.38;100311.72;1088460;54;20030;-82
2022/02/05 03:05:20;;;;;;;4.20;1.48;;;;;;;3.30;67.37;100313.25;1088358;54;20023;-81
2022/02/05 03:06:24;;;;;;;3.78;1.25;;;;;;;3.25;67.30;100316.19;1090493;39;20097;-81
2022/02/05 03:07:34;;;;;;;4.55;1.38;;;;;;;3.31;67.58;100316.78;1087921;54;20030;-81
2022/02/05 03:08:35;;;;;;;3.50;1.05;;;;;;;3.41;67.03;100318.75;1088179;54;20018;-80
2022/02/05 03:09:40;;;;;;;3.97;1.20;;;;;;;3.39;67.16;100317.16;1088159;54;20027;-82
2022/02/05 03:10:42;;;;;;;7.30;1.30;;;;;;;3.31;67.38;100317.59;1088484;46;20026;-81
2022/02/05 03:11:46;;;;;;;5.43;1.17;;;;;;;3.35;67.15;100315.63;1087856;54;20054;-81
2022/02/05 03:12:50;;;;;;;4.00;1.30;;;;;;;3.24;67.52;100319.75;1088203;54;20026;-82
2022/02/05 03:13:52;;;;;;;7.55;1.60;;;;;;;3.21;67.60;100319.94;1088342;54;20027;-79
2022/02/05 03:14:57;;;;;;;5.20;2.08;;;;;;;3.19;67.69;100329.75;1088604;54;20057;-81
2022/02/05 03:15:59;;;;;;;3.80;1.50;;;;;;;3.04;68.20;100320.94;1091915;46;20021;-81
2022/02/05 03:17:14;;;;;;;6.60;1.77;;;;;;;2.98;68.48;100321.28;1090740;46;20090;-81
2022/02/05 03:18:29;;;;;;;5.03;1.60;;;;;;;3.04;68.33;100328.00;1088367;54;20038;-81
2022/02/05 03:19:31;;;;;;;6.32;1.60;;;;;;;2.95;68.48;100329.41;1088400;54;20019;-81
2022/02/05 03:20:36;;;;;;;5.78;1.70;;;;;;;3.08;68.24;100333.00;1088422;54;20041;-80
2022/02/05 03:21:38;;;;;;;4.68;1.60;;;;;;;3.04;68.32;100330.66;1088234;54;20021;-81
2022/02/05 03:22:44;;;;;;;7.70;2.13;;;;;;;2.99;68.39;100332.72;1088518;54;20007;-82
2022/02/05 03:23:46;;;;;;;5.45;1.58;;;;;;;2.95;68.46;100329.41;1088365;54;20030;-80
2022/02/05 03:24:51;;;;;;;7.85;2.03;;;;;;;2.96;68.91;100339.03;1089625;46;20690;-81
2022/02/05 03:25:53;;;;;;;5.55;1.48;;;;;;;3.08;68.35;100340.09;1089610;39;20477;-81
2022/02/05 03:26:57;;;;;;;4.40;1.35;;;;;;;3.07;68.50;100346.31;1088204;54;20041;-81
2022/02/05 03:27:59;;;;;;;5.30;2.15;;;;;;;3.06;68.46;100341.97;1088349;54;20049;-81
2022/02/05 03:29:05;;;;;;;6.88;1.65;;;;;;;3.18;68.12;100353.63;1088131;54;20046;-81
2022/02/05 03:30:10;;;;;;;5.05;1.85;;;;;;;3.16;68.42;100348.44;1088254;54;20050;-82
2022/02/05 03:31:12;;;;;;;8.02;1.98;;;;;;;3.11;68.26;100350.50;1088346;54;20034;-80
2022/02/05 03:32:17;;;;;;;5.82;2.20;;;;;;;3.15;68.47;100359.94;1088198;54;20026;-81
2022/02/05 03:33:19;;;;;;;5.15;1.50;;;;;;;3.10;68.43;100359.38;1088291;54;20045;-80
2022/02/05 03:34:23;;;;;;;6.30;2.00;;;;;;;3.20;68.42;100357.88;1088262;54;20703;-81
2022/02/05 03:35:25;;;;;;;5.82;1.80;;;;;;;3.28;68.29;100366.22;1088109;54;20950;-81
2022/02/05 03:36:30;;;;;;;5.97;1.88;;;;;;;3.28;68.13;100360.94;1088219;54;20042;-81
2022/02/05 03:37:34;;;;;;;4.38;1.48;;;;;;;3.32;68.13;100366.00;1088012;54;20107;-80
2022/02/05 03:38:38;;;;;;;4.90;1.60;;;;;;;3.41;67.80;100365.47;1088207;54;20058;-81
2022/02/05 03:39:42;;;;;;;5.82;1.65;;;;;;;3.27;68.15;100367.16;1088201;54;20026;-81
2022/02/05 03:40:44;;;;;;;4.90;1.80;;;;;;;3.07;68.76;100378.03;1089640;39;20496;-81
2022/02/05 03:41:48;;;;;;;6.22;2.00;;;;;;;3.07;68.92;100378.03;1088133;54;20104;-80
2022/02/05 03:42:50;;;;;;;5.90;2.33;;;;;;;3.05;69.13;100374.63;1088183;54;20607;-81
2022/02/05 03:43:54;;;;;;;7.47;2.10;;;;;;;2.92;69.51;100374.47;1088202;54;20057;-81
2022/02/05 03:44:58;;;;;;;7.40;2.63;;;;;;;2.92;69.54;100380.63;1088066;54;20057;-82
2022/02/05 03:46:00;;;;;;;7.75;2.10;;;;;;;2.95;69.80;100374.31;1091162;39;20464;-81
2022/02/05 03:47:04;;;;;;;7.38;1.90;;;;;;;2.97;69.69;100378.56;1088133;54;20571;-80
2022/02/05 03:48:06;;;;;;;6.15;2.42;;;;;;;2.92;69.96;100391.19;1088169;54;20026;-81
2022/02/05 03:49:12;;;;;;;10.30;2.47;;;;;;;2.95;70.03;100396.28;1088264;54;20142;-81
2022/02/05 03:50:13;;;;;;;9.05;2.35;;;;;;;3.01;70.08;100400.34;1089130;39;20512;-80
2022/02/05 03:51:18;;;;;;;6.13;2.20;;;;;;;2.95;70.14;100396.28;1088266;54;20057;-81
2022/02/05 03:52:23;;;;;;;5.28;2.05;;;;;;;3.16;69.61;100397.78;1088135;54;20058;-80
2022/02/05 03:53:24;;;;;;;7.70;2.10;;;;;;;3.33;68.89;100399.44;1088249;54;20038;-80
2022/02/05 03:54:33;;;;;;;5.90;2.50;;;;;;;3.15;69.19;100396.91;1088346;54;20027;-80
2022/02/05 03:55:37;;;;;;;7.13;2.28;;;;;;;3.05;69.74;100398.38;1088117;54;20066;-82
2022/02/05 03:56:39;;;;;;;8.52;2.67;;;;;;;3.07;69.86;100404.44;1088105;54;20038;-80
2022/02/05 03:57:43;;;;;;;8.90;2.28;;;;;;;3.01;70.07;100394.25;1088379;54;20038;-81
2022/02/05 03:58:45;;;;;;;7.22;2.70;;;;;;;3.05;70.11;100401.03;1088207;54;20034;-80
2022/02/05 03:59:50;;;;;;;6.82;2.10;;;;;;;3.05;70.13;100401.91;1088233;54;20035;-81
2022/02/05 04:00:51;;;;;;;7.93;2.40;;;;;;;3.06;70.08;100392.16;1090433;39;20552;-81
2022/02/05 04:01:56;;;;;;;6.00;2.15;;;;;;;3.02;70.29;100396.78;1088009;54;20015;-80
2022/02/05 04:02:59;;;;;;;6.88;2.20;;;;;;;3.00;70.56;100403.09;1088280;54;20041;-82
2022/02/05 04:04:03;;;;;;;7.00;2.70;;;;;;;2.96;70.71;100403.25;1088159;54;20057;-80
2022/02/05 04:05:06;;;;;;;8.20;2.28;;;;;;;2.96;70.95;100408.53;1088303;54;20034;-82
2022/02/05 04:06:10;;;;;;;8.35;2.30;;;;;;;3.00;70.83;100409.22;1088315;54;20046;-80
2022/02/05 04:07:14;;;;;;;6.53;2.28;;;;;;;2.95;70.97;100406.00;1088101;54;20011;-80
2022/02/05 04:08:17;;;;;;;6.18;2.30;;;;;;;2.99;70.86;100409.31;1091354;39;20665;-81
2022/02/05 04:09:25;;;;;;;7.53;2.40;;;;;;;3.03;70.91;100414.34;1088299;54;20011;-81
2022/02/05 04:10:31;;;;;;;9.30;2.60;;;;;;;3.09;70.54;100413.13;1091944;39;20913;-80
2022/02/05 04:11:50;;;;;;;8.07;2.58;;;;;;;3.06;70.57;100410.66;1088109;54;20026;-79
2022/02/05 04:16:43;;;;;;;7.28;2.38;;;;;;;3.16;70.31;100425.06;1087884;54;20051;-81
2022/02/05 04:17:45;;;;;;;6.38;2.00;;;;;;;3.16;70.51;100421.56;1088339;47;20603;-81
2022/02/05 04:18:49;;;;;;;6.68;2.15;;;;;;;3.30;70.30;100423.41;1089778;39;20590;-80
2022/02/05 04:19:51;;;;;;;5.65;1.95;;;;;;;3.19;70.31;100430.16;1087774;54;20031;-80
2022/02/05 04:20:56;;;;;;;7.50;2.53;;;;;;;3.26;70.39;100428.00;1087659;54;20099;-79
2022/02/05 04:21:58;;;;;;;6.40;2.33;;;;;;;3.39;70.21;100430.81;1088107;39;20512;-80
2022/02/05 04:23:02;;;;;;;7.47;2.75;;;;;;;3.53;69.62;100435.28;1088146;54;20014;-82
2022/02/05 04:24:08;;;;;;;7.72;2.22;;;;;;;3.60;69.46;100433.97;1088410;54;20053;-81
2022/02/05 04:25:13;;;;;;;5.18;1.58;;;;;;;3.63;69.35;100427.66;1093980;39;20427;-81
2022/02/05 04:26:19;;;;;;;4.40;2.13;;;;;;;3.67;69.06;100434.47;1088393;54;20034;-81
2022/02/05 04:27:23;;;;;;;5.63;1.90;;;;;;;3.70;69.26;100434.28;1088363;54;20043;-82
2022/02/05 04:28:25;;;;;;;5.07;1.83;;;;;;;3.65;69.25;100436.34;1089680;47;20042;-82
2022/02/05 04:29:35;;;;;;;5.63;1.83;;;;;;;3.43;69.77;100441.13;1090514;46;20034;-81
2022/02/05 04:30:37;;;;;;;5.85;2.25;;;;;;;3.39;70.03;100438.75;1088368;54;20031;-82
2022/02/05 04:31:47;;;;;;;7.20;2.40;;;;;;;3.52;69.88;100442.34;1088336;54;20041;-81
2022/02/05 04:32:49;;;;;;;7.97;2.17;;;;;;;3.33;70.27;100436.44;1091145;47;20046;-81
2022/02/05 04:33:54;;;;;;;7.75;2.40;;;;;;;3.41;70.18;100450.06;1088149;54;20034;-81
2022/02/05 04:34:56;;;;;;;9.00;2.35;;;;;;;3.53;70.04;100444.06;1092378;47;20058;-81
2022/02/05 04:36:10;;;;;;;5.75;2.00;;;;;;;3.46;70.09;100449.78;1088351;54;20022;-78
2022/02/05 04:37:11;;;;;;;6.53;2.20;;;;;;;3.44;70.19;100447.25;1088523;54;20015;-81
2022/02/05 04:38:18;;;;;;;8.00;2.10;;;;;;;3.44;70.39;100455.16;1088644;54;20031;-80
2022/02/05 04:39:21;;;;;;;4.43;1.85;;;;;;;3.61;69.74;100453.34;1088405;54;20634;-80
2022/02/05 04:40:36;;;;;;;7.10;2.35;;;;;;;3.67;69.62;100448.53;1088476;54;20042;-80
2022/02/05 04:41:50;;;;;;;4.68;1.65;;;;;;;3.73;69.18;100444.69;1088603;54;20014;-81
2022/02/05 04:43:07;;;;;;;8.50;2.33;;;;;;;3.58;69.63;100457.00;1088564;54;20037;-80
2022/02/05 04:44:27;;;;;;;5.15;2.13;;;;;;;3.48;70.05;100451.41;1091963;46;20082;-81
2022/02/05 04:45:51;;;;;;;7.32;2.20;;;;;;;3.38;70.17;100451.09;1088496;54;20082;-80
2022/02/05 04:48:42;;;;;;;9.30;2.20;;;;;;;3.43;70.07;100449.06;1088228;54;20643;-79
2022/02/05 04:51:28;;;;;;;8.75;2.25;;;;;;;3.24;70.74;100453.69;1088402;54;20073;-81
2022/02/05 04:54:14;;;;;;;7.88;2.13;;;;;;;3.21;70.93;100457.34;1088495;54;20035;-82
2022/02/05 04:57:04;;;;;;;6.80;2.40;;;;;;;3.09;71.54;100448.31;1088138;54;20036;-81
2022/02/05 04:58:24;;;;;;;6.00;2.08;;;;;;;3.13;71.51;100456.91;1088529;54;20086;-84
2022/02/05 04:59:53;;;;;;;7.07;2.33;;;;;;;3.18;71.37;100462.81;1090318;46;20038;-82
2022/02/05 05:01:06;;;;;;;7.32;2.40;;;;;;;3.10;71.63;100459.75;1088403;54;20034;-78
2022/02/05 05:05:02;;;;;;;7.43;2.28;;;;;;;3.21;71.15;100469.72;1088176;54;20034;-77
2022/02/05 05:06:25;;;;;;;8.10;2.42;;;;;;;3.14;71.46;100468.34;1088499;46;20032;-78
2022/02/05 05:09:04;;;;;;;;;;;;;;;3.20;71.21;100474.16;1088445;54;20087;-78
2022/02/05 05:10:22;;;;;;;5.43;2.33;;;;;;;3.08;71.39;100470.38;1090091;46;19943;-78
2022/02/05 05:11:50;;;;;;;7.82;2.50;;;;;;;3.10;71.30;100473.81;1089775;46;20035;-78
2022/02/05 05:13:04;;;;;;;6.88;2.50;;;;;;;3.08;71.17;100470.38;1088094;54;20054;-78
2022/02/05 05:19:10;;;;;;;9.52;2.60;;;;;;;3.16;71.19;100479.69;1088366;54;20055;-77
2022/02/05 05:19:37;;;;;;;5.72;2.30;;;;;;;3.30;70.85;100468.34;1088134;54;20074;-78
2022/02/05 05:20:39;;;;;;;8.15;2.85;;;;;;;3.18;71.21;100470.75;1088741;47;20034;-79
2022/02/05 05:21:45;;;;;;;8.90;2.40;;;;;;;3.15;71.11;100470.91;1088306;47;20046;-78
2022/02/05 05:22:49;;;;;;;7.55;2.40;;;;;;;3.10;71.34;100475.59;1088087;54;20038;-79
2022/02/05 05:23:51;;;;;;;9.05;2.85;;;;;;;3.25;71.09;100474.72;1088000;54;20062;-78
2022/02/05 05:24:55;;;;;;;5.75;2.03;;;;;;;3.31;70.71;100472.69;1087988;54;20030;-79
2022/02/05 05:25:57;;;;;;;9.23;2.65;;;;;;;3.28;70.91;100474.56;1090006;46;20459;-79
2022/02/05 05:27:03;;;;;;;10.13;2.95;;;;;;;3.31;70.87;100476.16;1088530;54;20042;-78
2022/02/05 05:28:10;;;;;;;5.50;2.05;;;;;;;3.47;70.59;100476.16;1088509;54;20034;-79
2022/02/05 05:29:12;;;;;;;8.48;2.30;;;;;;;3.26;70.85;100479.09;1088576;54;20671;-78
2022/02/05 05:30:18;;;;;;;8.75;2.30;;;;;;;3.16;71.45;100477.91;1088490;54;20017;-78
2022/02/05 05:31:20;;;;;;;7.38;2.22;;;;;;;3.30;70.86;100477.09;1096047;46;20041;-78
2022/02/05 05:32:24;;;;;;;6.20;2.15;;;;;;;3.34;71.00;100480.44;1088295;54;20073;-79
2022/02/05 05:33:25;;;;;;;8.23;2.28;;;;;;;3.31;71.12;100481.47;1088496;54;20038;-79
2022/02/05 05:34:35;;;;;;;7.47;2.13;;;;;;;3.26;71.22;100486.13;1090383;39;20729;-79
2022/02/05 05:35:36;;;;;;;7.45;2.45;;;;;;;3.18;71.56;100488.38;1088515;54;20067;-80
2022/02/05 05:36:40;;;;;;;8.90;2.63;;;;;;;3.24;71.33;100491.53;1088444;54;20119;-79
2022/02/05 05:37:50;;;;;;;6.45;2.17;;;;;;;3.33;71.16;100484.00;1087897;54;20041;-79
2022/02/05 05:38:58;;;;;;;8.07;2.17;;;;;;;3.26;71.42;100489.66;1090279;46;20034;-78
2022/02/05 05:40:02;;;;;;;8.48;2.47;;;;;;;3.41;70.78;100492.34;1091213;46;20086;-79
2022/02/05 05:41:04;;;;;;;7.32;2.15;;;;;;;3.34;70.95;100491.00;1089770;46;20034;-78
2022/02/05 05:42:13;;;;;;;7.97;2.60;;;;;;;3.35;71.11;100488.28;1087862;54;20030;-79
2022/02/05 05:43:27;;;;;;;7.20;2.17;;;;;;;3.40;70.95;100494.16;1087909;54;20459;-79
2022/02/05 05:46:15;;;;;;;6.18;2.40;;;;;;;3.36;71.06;100495.25;1087526;54;21146;-78
2022/02/05 05:47:33;;;;;;;6.30;2.10;;;;;;;3.33;70.91;100491.94;1087217;54;20034;-78
2022/02/05 05:48:56;;;;;;;7.85;2.15;;;;;;;3.34;71.09;100489.22;1087402;54;20026;-78
2022/02/05 05:50:05;;;;;;;5.95;2.35;;;;;;;3.31;71.19;100488.56;1087608;54;20018;-78
2022/02/05 05:51:09;;;;;;;5.20;2.10;;;;;;;3.39;70.90;100488.97;1087577;54;20030;-78
2022/02/05 05:52:11;;;;;;;7.25;2.30;;;;;;;3.33;71.07;100489.28;1087466;54;20026;-79
2022/02/05 05:53:17;;;;;;;7.03;2.40;;;;;;;3.40;71.07;100491.50;1087573;54;20030;-79
2022/02/05 05:54:18;;;;;;;7.80;2.40;;;;;;;3.37;71.11;100494.31;1087583;54;20039;-79
2022/02/05 05:55:24;;;;;;;9.70;2.00;;;;;;;3.27;71.35;100491.34;1087562;54;20041;-79
2022/02/05 05:56:28;;;;;;;5.07;2.20;;;;;;;3.34;71.13;100485.72;1087547;54;20034;-79
2022/02/05 05:57:30;;;;;;;7.63;2.30;;;;;;;3.29;71.49;100491.25;1087455;54;20035;-78
2022/02/05 05:58:37;;;;;;;8.13;2.25;;;;;;;3.26;71.84;100492.28;1087615;54;20843;-78
2022/02/05 05:59:39;;;;;;;8.00;2.80;;;;;;;3.29;71.63;100493.91;1091735;39;20745;-80
2022/02/05 06:00:46;;;;;;;7.30;2.40;;;;;;;3.21;71.80;100490.84;1087540;54;20053;-82
2022/02/05 06:01:49;;;;;;;6.60;1.83;;;;;;;3.30;71.68;100486.84;1090041;39;20717;-80
2022/02/05 06:02:53;;;;;;;7.50;2.30;;;;;;;3.17;71.89;100489.31;1087563;54;20034;-78
2022/02/05 06:03:58;;;;;;;7.82;2.95;;;;;;;3.09;72.10;100495.03;1087617;54;20034;-79
2022/02/05 06:05:00;;;;;;;7.38;2.45;;;;;;;3.12;72.28;100492.19;1087541;54;20063;-79
2022/02/05 06:06:04;;;;;;;7.82;2.60;;;;;;;3.05;72.35;100501.41;1087562;54;20026;-78
2022/02/05 06:07:06;;;;;;;8.75;2.85;;;;;;;3.10;72.11;100502.88;1087462;54;20048;-79
2022/02/05 06:08:11;;;;;;;7.20;2.53;;;;;;;3.12;71.84;100508.06;1087576;54;21206;-79
2022/02/05 06:09:15;;;;;;;6.60;2.10;;;;;;;3.01;72.49;100510.47;1087618;54;20034;-79
2022/02/05 06:10:19;;;;;;;7.05;2.33;;;;;;;3.08;72.21;100506.53;1087482;54;20063;-79
2022/02/05 06:11:26;;;;;;;9.00;2.17;;;;;;;3.07;72.19;100510.13;1087623;54;20055;-79
2022/02/05 06:12:27;;;;;;;7.90;2.38;;;;;;;3.00;72.50;100508.75;1087643;54;20853;-78
2022/02/05 06:13:33;;;;;;;10.85;3.65;;;;;;;3.03;72.61;100519.13;1087990;54;20063;-78
2022/02/05 06:14:38;;;;;;;7.70;2.08;;;;;;;3.10;72.64;100517.88;1087734;54;20045;-79
2022/02/05 06:15:44;;;;;;;8.20;2.10;;;;;;;3.18;72.21;100520.94;1087504;54;20055;-79
2022/02/05 06:16:49;;;;;;;8.00;2.00;;;;;;;3.16;72.25;100514.88;1087401;54;20065;-78
2022/02/05 06:17:54;;;;;;;7.32;2.20;;;;;;;3.13;72.15;100520.31;1087535;54;20129;-78
2022/02/05 06:18:56;;;;;;;5.82;2.60;;;;;;;3.16;72.36;100522.81;1087514;54;20046;-78
2022/02/05 06:20:00;;;;;;;8.00;2.15;;;;;;;3.03;72.41;100517.34;1087541;54;20848;-78
2022/02/05 06:21:02;;;;;;;8.50;2.50;;;;;;;3.02;72.46;100525.38;1088376;39;20687;-79
2022/02/05 06:22:07;;;;;;;6.55;2.15;;;;;;;3.04;72.78;100520.84;1087474;54;20034;-78
2022/02/05 06:23:09;;;;;;;6.13;2.30;;;;;;;3.17;72.25;100521.88;1087545;54;20058;-77
2022/02/05 06:24:13;;;;;;;6.20;2.78;;;;;;;3.14;72.39;100516.75;1087761;54;20086;-79
2022/02/05 06:25:17;;;;;;;7.32;2.50;;;;;;;3.15;72.56;100518.47;1087740;54;20042;-79
2022/02/05 06:26:19;;;;;;;7.93;2.72;;;;;;;3.15;72.64;100515.81;1087723;54;20041;-78
2022/02/05 06:27:23;;;;;;;7.93;2.28;;;;;;;3.15;72.47;100518.47;1088454;46;20027;-78
2022/02/05 06:28:25;;;;;;;7.28;2.30;;;;;;;3.18;72.36;100520.06;1087745;54;20063;-79
2022/02/05 06:29:29;;;;;;;7.50;2.53;;;;;;;3.25;72.19;100527.59;1087809;54;20035;-79
2022/02/05 06:30:36;;;;;;;7.22;2.38;;;;;;;3.26;72.24;100531.94;1088078;39;20368;-78
2022/02/05 06:31:37;;;;;;;9.85;2.42;;;;;;;3.22;71.87;100526.91;1087798;54;20035;-78